Time;durP1;ratioP1;P1;durP2;ratioP2;P2;SDS_P1;SDS_P2;PMS_P1;PMS_P2;Temp;Humidity;BMP_temperature;BMP_pressure;BME280_temperature;BME280_humidity;BME280_pressure;Samples;Min_cycle;Max_cycle;Signal;HPM_P1;HPM_P2
2021/12/04 12:12:14;;;;;;;11.27;8.03;;;;;;;4.73;100.00;99340.63;5333842;27;20358;-71
2021/12/04 12:14:58;;;;;;;8.45;6.15;;;;;;;4.77;100.00;99329.16;5306865;27;20476;-72
2021/12/04 12:17:33;;;;;;;9.67;6.60;;;;;;;4.82;100.00;99342.69;5312360;28;20028;-72
2021/12/04 12:20:11;;;;;;;10.77;6.67;;;;;;;4.84;100.00;99335.66;5311054;28;20035;-72
2021/12/04 12:22:51;;;;;;;7.10;5.70;;;;;;;4.86;100.00;99334.72;5319287;28;20621;-73
2021/12/04 12:25:31;;;;;;;7.10;6.13;;;;;;;4.91;100.00;99330.09;5319396;28;20065;-72
2021/12/04 12:34:09;;;;;;;10.73;6.77;;;;;;;5.01;100.00;99338.16;5324409;28;20066;-73
2021/12/04 12:36:41;;;;;;;8.47;5.83;;;;;;;5.05;100.00;99337.88;5324117;28;20027;-72
2021/12/04 12:39:13;;;;;;;7.87;6.67;;;;;;;5.05;100.00;99337.88;5321775;27;20482;-73
2021/12/04 12:41:48;;;;;;;12.30;7.60;;;;;;;5.04;100.00;99345.75;5327126;27;20513;-73
2021/12/04 12:44:26;;;;;;;9.77;7.47;;;;;;;5.10;100.00;99347.16;5326665;28;20023;-73
2021/12/04 12:47:04;;;;;;;10.27;7.30;;;;;;;5.06;100.00;99344.72;5310780;28;20378;-73
2021/12/04 12:49:41;;;;;;;11.77;7.70;;;;;;;5.06;100.00;99349.09;5310569;28;20065;-75
2021/12/04 12:52:12;;;;;;;10.67;8.30;;;;;;;5.06;100.00;99343.91;5311201;28;20039;-71
2021/12/04 12:55:42;;;;;;;12.47;9.57;;;;;;;5.07;100.00;99346.41;5308123;27;1185365;-71
2021/12/04 12:58:18;;;;;;;13.40;10.57;;;;;;;5.04;100.00;99332.78;5317445;27;20059;-72
2021/12/04 13:12:51;;;;;;;14.87;12.77;;;;;;;5.18;100.00;99326.75;5302653;28;20040;-75
2021/12/04 13:15:36;;;;;;;16.50;14.47;;;;;;;5.17;100.00;99325.91;5333260;27;20023;-75
2021/12/04 13:18:09;;;;;;;;;;;;;;;5.27;100.00;99326.16;5331915;27;20012;-74
2021/12/04 13:20:41;;;;;;;17.50;15.37;;;;;;;5.18;100.00;99327.56;5330599;27;19938;-74
2021/12/04 13:23:17;;;;;;;15.80;14.20;;;;;;;5.19;100.00;99333.59;5325878;27;20489;-74
2021/12/04 13:25:49;;;;;;;19.07;15.63;;;;;;;5.21;100.00;99326.53;5317519;28;20019;-73
2021/12/04 13:28:23;;;;;;;18.40;15.53;;;;;;;5.17;100.00;99319.88;5305165;28;20138;-74
2021/12/04 13:30:56;;;;;;;16.63;14.38;;;;;;;5.19;100.00;99318.84;5308527;28;20019;-74
2021/12/04 13:33:33;;;;;;;17.67;15.63;;;;;;;5.23;100.00;99311.72;5308981;28;20031;-74
2021/12/04 13:36:37;;;;;;;16.73;13.70;;;;;;;5.19;100.00;99300.69;5312828;27;20042;-73
2021/12/04 13:39:14;;;;;;;16.17;11.90;;;;;;;5.18;100.00;99304.19;5286018;28;20043;-73
2021/12/04 13:41:47;;;;;;;14.40;11.93;;;;;;;5.19;100.00;99315.41;5305290;28;20054;-74
2021/12/04 13:44:23;;;;;;;13.87;12.47;;;;;;;5.18;100.00;99319.75;5302093;28;20110;-74
2021/12/04 13:47:01;;;;;;;14.03;12.40;;;;;;;5.14;100.00;99320.06;5300442;28;20040;-74
2021/12/04 13:49:38;;;;;;;13.17;11.33;;;;;;;5.22;100.00;99317.00;5319899;28;20158;-74
2021/12/04 13:52:12;;;;;;;14.63;11.03;;;;;;;5.14;100.00;99317.47;5315255;27;20509;-74
2021/12/04 13:54:49;;;;;;;13.95;11.77;;;;;;;5.17;100.00;99319.88;5312635;27;20067;-74
2021/12/04 13:57:21;;;;;;;14.30;11.57;;;;;;;5.15;100.00;99313.97;5300999;28;20039;-75
2021/12/04 13:59:58;;;;;;;13.03;11.63;;;;;;;5.13;100.00;99311.44;5310214;28;20137;-74
2021/12/04 14:02:31;;;;;;;12.77;11.07;;;;;;;5.19;100.00;99311.06;5305576;28;21221;-73
2021/12/04 14:05:13;;;;;;;16.10;12.33;;;;;;;5.17;100.00;99305.13;5297323;28;20044;-75
2021/12/04 14:07:50;;;;;;;13.23;11.43;;;;;;;5.17;100.00;99317.28;5289911;28;20160;-75
2021/12/04 14:10:25;;;;;;;17.67;11.93;;;;;;;5.21;100.00;99321.34;5314099;28;20078;-78
2021/12/04 14:12:58;;;;;;;13.47;11.07;;;;;;;5.15;100.00;99321.75;5313065;28;20023;-79
2021/12/04 14:15:30;;;;;;;14.03;11.17;;;;;;;5.21;100.00;99318.75;5313903;28;20020;-78
2021/12/04 14:18:07;;;;;;;11.80;10.43;;;;;;;5.19;100.00;99318.00;5315898;28;20052;-76
2021/12/04 14:20:41;;;;;;;13.80;12.20;;;;;;;5.16;100.00;99323.41;5313269;28;20031;-75
2021/12/04 14:23:13;;;;;;;16.50;12.15;;;;;;;5.16;100.00;99320.81;5316890;28;20029;-76
2021/12/04 14:25:46;;;;;;;14.53;11.77;;;;;;;5.23;100.00;99323.84;5314013;28;20106;-76
2021/12/04 14:28:19;;;;;;;12.50;11.13;;;;;;;5.17;100.00;99327.66;5317333;28;20050;-77
2021/12/04 14:30:51;;;;;;;12.83;10.63;;;;;;;5.16;100.00;99333.78;5317042;28;20023;-79
2021/12/04 14:33:24;;;;;;;15.37;11.07;;;;;;;5.18;100.00;99340.53;5314908;28;20059;-77
2021/12/04 14:35:55;;;;;;;15.30;10.57;;;;;;;5.13;100.00;99333.97;5316874;28;20066;-76
2021/12/04 14:38:27;;;;;;;12.93;10.23;;;;;;;5.13;100.00;99352.16;5315125;28;20497;-78
2021/12/04 14:41:00;;;;;;;12.00;9.93;;;;;;;5.20;100.00;99356.84;5312911;28;20111;-76
2021/12/04 14:43:35;;;;;;;13.40;9.10;;;;;;;5.17;100.00;99353.59;5312833;28;20088;-74
2021/12/04 14:46:12;;;;;;;11.50;8.67;;;;;;;5.07;100.00;99350.75;5317418;28;20020;-74
2021/12/04 14:48:50;;;;;;;12.37;8.53;;;;;;;5.16;100.00;99364.94;5309266;28;20028;-75
2021/12/04 14:51:23;;;;;;;11.17;7.90;;;;;;;5.10;100.00;99373.09;5296741;28;20081;-74
2021/12/04 14:53:56;;;;;;;12.60;8.17;;;;;;;5.10;100.00;99368.72;5303481;28;20128;-74
2021/12/04 14:56:31;;;;;;;8.73;7.17;;;;;;;5.13;100.00;99380.69;5316589;28;20028;-75
2021/12/04 14:59:13;;;;;;;9.90;7.47;;;;;;;5.18;100.00;99389.03;5315829;28;20363;-75
2021/12/04 15:01:45;;;;;;;10.50;6.77;;;;;;;5.17;100.00;99392.53;5314678;28;20038;-76
2021/12/04 15:04:16;;;;;;;8.20;6.30;;;;;;;5.15;100.00;99399.59;5314187;28;20031;-76
2021/12/04 15:06:50;;;;;;;10.17;6.27;;;;;;;5.22;100.00;99402.66;5314260;28;20023;-76
2021/12/04 15:09:22;;;;;;;7.97;6.15;;;;;;;5.16;100.00;99402.09;5311356;28;20038;-76
2021/12/04 15:11:54;;;;;;;7.07;5.10;;;;;;;5.09;100.00;99400.81;5312287;28;20058;-75
2021/12/04 15:14:32;;;;;;;7.03;4.67;;;;;;;5.14;100.00;99406.56;5312957;28;20142;-73
2021/12/04 15:17:13;;;;;;;8.27;5.30;;;;;;;5.10;100.00;99399.88;5291484;28;20024;-73
2021/12/04 15:19:46;;;;;;;7.43;3.83;;;;;;;5.07;100.00;99407.84;5310319;28;20024;-72
2021/12/04 15:22:22;;;;;;;6.63;4.63;;;;;;;5.08;100.00;99412.94;5314810;28;20050;-73
2021/12/04 15:24:55;;;;;;;7.77;3.90;;;;;;;5.12;100.00;99425.72;5314328;28;20610;-72
2021/12/04 15:27:28;;;;;;;6.93;3.43;;;;;;;5.15;100.00;99430.75;5316365;27;20582;-72
2021/12/04 15:30:01;;;;;;;9.53;4.60;;;;;;;5.11;100.00;99437.03;5315717;28;20359;-73
2021/12/04 15:32:36;;;;;;;7.23;3.63;;;;;;;5.08;100.00;99436.28;5315394;28;20106;-73
2021/12/04 15:35:22;;;;;;;5.90;2.80;;;;;;;5.14;100.00;99440.28;5316042;28;20027;-74
2021/12/04 15:38:11;;;;;;;5.33;3.27;;;;;;;5.10;100.00;99453.56;5315957;28;20055;-76
2021/12/04 15:41:05;;;;;;;7.27;3.57;;;;;;;5.09;100.00;99450.13;5305063;28;20024;-73
2021/12/04 15:43:54;;;;;;;8.80;3.70;;;;;;;5.14;100.00;99455.88;5314765;28;20019;-73
2021/12/04 15:55:02;;;;;;;8.37;3.90;;;;;;;5.11;100.00;99471.63;5313412;28;20048;-74
2021/12/04 15:57:35;;;;;;;6.03;3.10;;;;;;;5.14;100.00;99475.78;5314512;28;20026;-78
2021/12/04 16:00:12;;;;;;;6.17;2.70;;;;;;;5.13;100.00;99474.13;5315116;28;20363;-78
2021/12/04 16:02:49;;;;;;;10.03;3.27;;;;;;;5.06;100.00;99476.25;5313180;28;20088;-74
2021/12/04 16:05:22;;;;;;;9.57;3.53;;;;;;;5.06;100.00;99486.63;5309374;28;20027;-75
2021/12/04 16:08:15;;;;;;;11.00;3.17;;;;;;;5.07;100.00;99491.72;5314216;28;20019;-73
2021/12/04 16:10:49;;;;;;;8.93;2.73;;;;;;;5.05;100.00;99503.97;5312672;28;20531;-75
2021/12/04 16:13:27;;;;;;;8.67;3.53;;;;;;;5.10;100.00;99497.66;5313973;28;20123;-80
2021/12/04 16:15:59;;;;;;;9.43;3.77;;;;;;;4.91;100.00;99499.56;5314558;28;20024;-76
2021/12/04 16:18:30;;;;;;;13.10;3.53;;;;;;;4.88;100.00;99497.16;5313387;28;20023;-81
2021/12/04 16:21:02;;;;;;;8.83;2.83;;;;;;;4.94;100.00;99506.34;5313598;28;20049;-77
2021/12/04 16:23:33;;;;;;;8.43;3.27;;;;;;;4.90;100.00;99520.41;5314418;28;20447;-81
2021/12/04 16:26:05;;;;;;;10.77;2.73;;;;;;;4.88;100.00;99519.66;5313793;28;20024;-81
2021/12/04 16:31:32;;;;;;;7.35;3.33;;;;;;;4.80;100.00;99533.09;5315915;28;20023;-79
2021/12/04 16:35:05;;;;;;;12.60;4.00;;;;;;;4.75;100.00;99542.88;5314070;28;20027;-76
2021/12/04 16:37:04;;;;;;;11.27;3.47;;;;;;;4.75;100.00;99543.69;5294173;28;20453;-77
2021/12/04 16:39:36;;;;;;;13.40;2.97;;;;;;;4.62;100.00;99537.53;5306771;28;20026;-79
2021/12/04 16:42:09;;;;;;;12.33;3.00;;;;;;;4.57;100.00;99555.97;5314557;28;20036;-76
2021/12/04 16:44:42;;;;;;;12.57;2.83;;;;;;;4.64;100.00;99549.50;5316767;28;20034;-74
2021/12/04 16:47:14;;;;;;;16.33;4.03;;;;;;;4.56;100.00;99539.56;5306214;28;20016;-75
2021/12/04 16:49:47;;;;;;;13.50;3.40;;;;;;;4.59;100.00;99554.94;5293074;28;20023;-75
2021/12/04 16:55:41;;;;;;;16.60;4.40;;;;;;;4.50;100.00;99550.28;5293816;28;20048;-76
2021/12/04 16:58:14;;;;;;;16.10;3.73;;;;;;;4.56;100.00;99560.31;5303633;28;20727;-76
2021/12/04 17:00:49;;;;;;;16.73;5.13;;;;;;;4.32;100.00;99546.94;5294191;28;20036;-78
2021/12/04 17:03:21;;;;;;;16.07;4.33;;;;;;;4.33;100.00;99562.41;5312051;28;20072;-79
2021/12/04 17:05:53;;;;;;;17.60;4.33;;;;;;;4.33;100.00;99562.41;5312147;28;20011;-76
2021/12/04 17:08:25;;;;;;;11.73;4.40;;;;;;;4.33;100.00;99564.13;5313621;28;20106;-78
2021/12/04 17:10:56;;;;;;;14.20;4.50;;;;;;;4.27;100.00;99567.94;5310575;28;20126;-81
2021/12/04 17:13:28;;;;;;;18.20;4.10;;;;;;;4.31;100.00;99576.38;5292490;28;21037;-79
2021/12/04 17:16:00;;;;;;;17.67;4.40;;;;;;;4.31;100.00;99584.97;5292432;28;20023;-75
2021/12/04 17:18:36;;;;;;;16.70;4.03;;;;;;;4.31;100.00;99584.16;5299757;28;20031;-79
2021/12/04 17:21:07;;;;;;;16.00;4.50;;;;;;;4.14;100.00;99574.69;5311798;28;20015;-82
2021/12/04 17:23:39;;;;;;;14.73;3.93;;;;;;;4.19;100.00;99586.47;5311486;28;20607;-84
2021/12/04 17:26:10;;;;;;;14.77;4.20;;;;;;;4.13;100.00;99584.22;5312641;28;20103;-71
2021/12/04 17:28:45;;;;;;;15.93;4.40;;;;;;;3.97;100.00;99573.81;5313395;28;20106;-71
2021/12/04 17:31:17;;;;;;;17.27;4.75;;;;;;;4.05;100.00;99581.19;5312276;28;20024;-71
2021/12/04 17:33:54;;;;;;;19.97;4.47;;;;;;;4.09;100.00;99590.47;5312081;28;20089;-75
2021/12/04 17:36:31;;;;;;;12.40;3.97;;;;;;;4.04;100.00;99595.91;5310741;28;20032;-80
2021/12/04 17:39:08;;;;;;;18.93;3.67;;;;;;;4.07;100.00;99598.31;5313123;28;20035;-73
2021/12/04 17:41:41;;;;;;;10.93;3.67;;;;;;;4.01;100.00;99606.44;5315384;28;20466;-77
2021/12/04 17:44:19;;;;;;;17.43;3.60;;;;;;;3.97;100.00;99610.09;5316269;28;20038;-74
2021/12/04 17:46:52;;;;;;;12.03;2.80;;;;;;;3.91;100.00;99608.66;5317647;27;20028;-74
2021/12/04 17:49:26;;;;;;;21.33;3.78;;;;;;;3.94;100.00;99608.50;5316843;28;20035;-71
2021/12/04 17:51:58;;;;;;;19.23;3.92;;;;;;;3.84;100.00;99610.72;5311199;28;20696;-72
2021/12/04 17:54:31;;;;;;;13.27;3.93;;;;;;;3.89;100.00;99607.06;5312501;28;20039;-69
2021/12/04 17:57:02;;;;;;;17.47;4.03;;;;;;;3.90;100.00;99619.09;5315572;28;20583;-71
2021/12/04 17:59:34;;;;;;;23.10;5.30;;;;;;;3.90;100.00;99619.94;5316154;28;20036;-71
2021/12/04 18:02:11;;;;;;;23.37;4.00;;;;;;;3.92;100.00;99612.06;5316598;28;20034;-72
2021/12/04 18:04:46;;;;;;;16.77;5.03;;;;;;;3.85;100.00;99615.00;5312367;28;20067;-72
2021/12/04 18:07:22;;;;;;;15.93;3.27;;;;;;;3.84;100.00;99610.72;5317482;28;20031;-71
2021/12/04 18:09:57;;;;;;;13.90;3.27;;;;;;;3.97;100.00;99623.88;5307997;28;20039;-75
2021/12/04 18:12:44;;;;;;;15.83;3.60;;;;;;;3.95;100.00;99627.47;5316322;28;20031;-72
2021/12/04 18:15:26;;;;;;;14.97;3.67;;;;;;;3.93;100.00;99635.31;5316075;28;20031;-75
2021/12/04 18:17:57;;;;;;;15.93;4.37;;;;;;;3.96;100.00;99639.50;5313717;28;20405;-82
2021/12/04 18:20:29;;;;;;;17.20;4.27;;;;;;;3.89;100.00;99632.97;5316587;28;20024;-74
2021/12/04 18:23:01;;;;;;;19.73;5.63;;;;;;;3.94;100.00;99646.53;5316534;28;20631;-73
2021/12/04 18:25:32;;;;;;;25.40;6.37;;;;;;;3.99;100.00;99647.13;5316593;28;20023;-76
2021/12/04 18:28:04;;;;;;;19.17;5.33;;;;;;;4.02;100.00;99661.66;5316739;28;20066;-74
2021/12/04 18:30:37;;;;;;;21.20;4.43;;;;;;;3.97;100.00;99651.53;5316688;28;20016;-72
2021/12/04 18:33:09;;;;;;;21.60;4.83;;;;;;;3.97;100.00;99641.19;5316457;28;20035;-76
2021/12/04 18:35:40;;;;;;;17.70;4.90;;;;;;;3.85;100.00;99637.47;5315944;28;20043;-73
2021/12/04 18:38:12;;;;;;;28.20;7.57;;;;;;;3.96;100.00;99649.88;5316683;28;20023;-81
2021/12/04 18:40:44;;;;;;;21.23;5.20;;;;;;;3.96;100.00;99649.88;5316298;28;20023;-75
2021/12/04 18:43:21;;;;;;;15.23;6.43;;;;;;;3.92;100.00;99643.16;5316651;28;20414;-86
2021/12/04 18:45:53;;;;;;;19.00;5.67;;;;;;;3.93;100.00;99652.59;5315980;28;20099;-77
2021/12/04 18:48:24;;;;;;;17.90;4.93;;;;;;;3.87;100.00;99652.00;5316029;28;20026;-76
2021/12/04 18:50:56;;;;;;;26.47;6.97;;;;;;;3.89;100.00;99649.34;5314432;28;20568;-74
2021/12/04 18:53:27;;;;;;;22.50;7.37;;;;;;;3.87;100.00;99656.38;5316106;28;20035;-73
2021/12/04 18:56:00;;;;;;;23.57;5.77;;;;;;;3.79;100.00;99648.97;5316061;28;20158;-80
2021/12/04 18:58:31;;;;;;;18.97;5.47;;;;;;;3.81;100.00;99636.78;5315019;28;20027;-78
2021/12/04 19:01:03;;;;;;;15.97;5.40;;;;;;;3.80;100.00;99645.47;5316277;28;20450;-84
2021/12/04 19:03:36;;;;;;;19.50;5.60;;;;;;;3.77;100.00;99640.44;5313992;28;20377;-81
2021/12/04 19:06:08;;;;;;;17.47;7.53;;;;;;;3.68;100.00;99652.13;5310239;28;20540;-84
2021/12/04 19:08:39;;;;;;;19.03;7.00;;;;;;;3.72;100.00;99651.03;5316076;28;20127;-74
2021/12/04 19:11:11;;;;;;;19.53;8.13;;;;;;;3.74;100.00;99666.50;5315954;28;20019;-81
2021/12/04 19:13:42;;;;;;;23.63;6.50;;;;;;;3.73;100.00;99660.50;5316439;28;20047;-83
2021/12/04 19:16:18;;;;;;;13.10;6.00;;;;;;;3.77;100.00;99663.75;5316416;28;20030;-78
2021/12/04 19:18:50;;;;;;;20.57;6.53;;;;;;;3.66;100.00;99653.94;5314512;28;20020;-72
2021/12/04 19:21:24;;;;;;;13.63;5.90;;;;;;;3.72;100.00;99668.31;5315220;27;20485;-73
2021/12/04 19:23:58;;;;;;;14.32;5.70;;;;;;;3.63;100.00;99664.47;5316050;28;20520;-73
2021/12/04 19:26:30;;;;;;;32.53;7.30;;;;;;;3.59;100.00;99668.97;5308081;28;20020;-70
2021/12/04 19:29:03;;;;;;;14.57;5.33;;;;;;;3.61;100.00;99667.09;5312704;28;20024;-71
2021/12/04 19:31:39;;;;;;;15.40;4.93;;;;;;;3.58;100.00;99667.25;5314966;28;20016;-78
2021/12/04 19:51:08;;;;;;;15.53;4.70;;;;;;;3.73;100.00;99675.19;5308422;28;20035;-75
2021/12/04 19:56:26;;;;;;;16.80;5.10;;;;;;;3.69;100.00;99677.09;5295464;28;20039;-75
2021/12/04 19:58:59;;;;;;;16.70;5.93;;;;;;;3.75;100.00;99683.72;5295753;28;20016;-82
2021/12/04 20:04:59;;;;;;;;;;;;;;;3.90;100.00;99676.06;5295262;28;20016;-80
2021/12/04 20:07:23;;;;;;;13.30;4.80;;;;;;;3.79;100.00;99674.06;5289578;28;20004;-82
2021/12/04 20:15:35;;;;;;;13.20;5.17;;;;;;;3.71;100.00;99661.47;5298729;28;20680;-81
2021/12/04 20:18:11;;;;;;;19.93;5.27;;;;;;;3.68;100.00;99659.03;5294400;28;20016;-76
2021/12/04 20:20:50;;;;;;;18.80;6.07;;;;;;;3.67;100.00;99662.53;5294632;28;20035;-79
2021/12/04 20:23:24;;;;;;;18.23;6.97;;;;;;;3.63;100.00;99669.63;5293848;28;20479;-81
2021/12/04 20:26:02;;;;;;;21.13;6.63;;;;;;;3.62;100.00;99667.94;5301799;28;20069;-82
2021/12/04 20:28:55;;;;;;;22.50;6.33;;;;;;;3.59;100.00;99673.28;5301855;28;20020;-79
2021/12/04 20:31:49;;;;;;;18.53;6.83;;;;;;;3.54;100.00;99670.94;5310358;28;20498;-83
2021/12/04 20:35:03;;;;;;;18.57;6.80;;;;;;;3.49;100.00;99670.31;5314512;28;20019;-74
2021/12/04 21:26:39;;;;;;;20.27;5.80;;;;;;;3.18;100.00;99669.22;5316334;28;20031;-78
2021/12/04 21:38:44;;;;;;;18.33;5.07;;;;;;;3.17;100.00;99693.41;5313606;28;20032;-77
2021/12/04 21:39:58;;;;;;;20.33;5.63;;;;;;;3.07;100.00;99696.41;5302704;28;20039;-76
2021/12/04 21:50:39;;;;;;;14.40;5.13;;;;;;;2.98;99.67;99687.38;5289426;28;20039;-77
2021/12/04 21:53:11;;;;;;;17.17;4.67;;;;;;;2.94;99.84;99679.81;5292595;28;20020;-80
2021/12/04 21:55:53;;;;;;;16.17;4.73;;;;;;;3.02;99.83;99691.47;5287667;28;20264;-77
2021/12/04 22:10:07;;;;;;;14.50;4.60;;;;;;;3.06;98.37;99681.81;5295028;28;20036;-75
2021/12/04 22:12:58;;;;;;;14.87;5.40;;;;;;;3.09;98.59;99688.59;5302867;28;20051;-75
2021/12/04 22:21:01;;;;;;;16.03;4.53;;;;;;;3.07;98.52;99687.84;5295336;28;20105;-78
2021/12/04 22:27:07;;;;;;;16.40;4.47;;;;;;;3.16;97.51;99691.75;5316520;28;20398;-76
2021/12/04 22:55:10;;;;;;;14.77;4.53;;;;;;;3.11;97.31;99684.19;5316704;28;20061;-75
2021/12/04 22:58:04;;;;;;;16.17;4.23;;;;;;;3.30;96.03;99715.19;5298102;28;20064;-75
2021/12/04 23:00:56;;;;;;;12.73;3.80;;;;;;;3.43;96.17;99709.44;5295012;28;20040;-76
2021/12/04 23:12:40;;;;;;;17.93;5.03;;;;;;;3.36;96.22;99714.06;5312359;28;20479;-76
2021/12/04 23:15:21;;;;;;;13.00;4.03;;;;;;;3.40;95.59;99713.03;5314248;28;20156;-79
2021/12/04 23:18:25;;;;;;;20.50;6.47;;;;;;;3.38;95.94;99718.28;5314608;28;20023;-77
2021/12/04 23:35:06;;;;;;;16.00;5.13;;;;;;;3.32;96.02;99717.72;5313222;28;20067;-78
2021/12/04 23:38:04;;;;;;;23.37;5.23;;;;;;;3.24;96.20;99700.81;5313667;28;20023;-78
2021/12/04 23:43:52;;;;;;;15.33;5.33;;;;;;;3.36;95.96;99714.06;5313194;28;20040;-78
2021/12/04 23:50:00;;;;;;;14.70;4.10;;;;;;;3.30;95.62;99704.84;5315699;27;20043;-78
